Date,TemperatureHighF,TemperatureAvgF,TemperatureLowF,DewpointHighF,DewpointAvgF,DewpointLowF,HumidityHigh,HumidityAvg,HumidityLow,PressureMaxIn,PressureMinIn,WindSpeedMaxMPH,WindSpeedAvgMPH,GustSpeedMaxMPH,PrecipitationSumIn
2014-1-1,35.2,27.3,15.8,22.2,16.6,9.7,84,64,53,30.35,30.16,5,1,0,0.00
2014-1-2,31.5,25.6,16.7,23.3,19.8,13.8,90,79,67,30.15,29.59,9,4,0,0.00
2014-1-3,19.6,12.9,4.8,13.3,7.0,-2.0,88,77,65,30.41,29.55,10,4,0,0.00
2014-1-4,28.6,13.0,1.0,10.4,3.7,-3.0,85,68,40,30.47,30.24,5,1,0,0.00
2014-1-5,34.9,24.6,9.0,34.6,22.7,5.7,99,92,84,30.24,29.66,3,0,0,0.29
2014-1-6,56.3,40.3,14.0,56.0,34.4,-5.3,99,80,41,29.69,29.29,13,4,0,0.73
2014-1-7,12.9,7.0,2.1,-4.9,-9.0,-13.8,54,47,39,30.33,29.71,18,6,0,0.00
2014-1-8,22.5,14.1,6.3,5.7,0.3,-5.5,65,54,43,30.50,30.33,9,2,0,0.00
2014-1-9,33.1,22.4,14.4,15.3,10.4,5.9,77,61,42,30.59,30.43,5,1,0,0.00
2014-1-10,33.6,33.4,33.4,32.6,31.7,30.2,96,93,88,30.28,30.25,2,0,0,0.06
2014-1-11,61.3,56.4,48.2,61.0,55.7,47.9,99,98,91,29.76,29.24,5,2,0,0.75
2014-1-12,52.5,42.1,30.7,51.4,32.5,25.0,96,69,58,30.00,29.33,9,3,0,0.01
2014-1-13,54.9,41.7,25.0,41.7,33.0,22.6,92,72,56,30.05,29.80,8,1,0,0.00
2014-1-14,47.1,42.4,36.1,46.6,41.0,32.5,99,95,82,29.81,29.58,4,0,0,0.37
2014-1-15,49.6,38.0,30.9,41.7,36.2,30.7,99,94,73,29.93,29.77,7,1,0,0.01
2014-1-16,41.7,38.2,28.9,38.9,32.9,27.4,97,81,75,29.87,29.75,5,1,0,0.00
2014-1-17,45.5,32.4,20.7,31.8,26.2,18.2,96,79,56,29.91,29.79,4,0,0,0.00
2014-1-18,41.7,33.5,24.6,33.4,26.9,15.2,94,77,61,29.79,29.59,8,2,0,0.21
2014-1-19,35.6,29.1,21.0,24.5,18.9,13.1,71,65,55,29.77,29.57,11,4,0,0.00
2014-1-20,47.3,37.8,31.5,29.7,26.4,20.4,73,64,48,29.81,29.49,9,3,0,0.00
2014-1-21,30.9,19.1,10.4,19.8,11.8,4.6,86,74,51,29.91,29.74,9,4,0,0.00
2014-1-22,19.9,10.8,3.2,4.7,-1.1,-4.5,78,59,39,29.93,29.71,11,4,0,0.00
2014-1-23,21.4,11.6,1.9,6.0,0.8,-5.1,82,62,48,30.23,29.92,8,2,0,0.00
2014-1-24,20.7,12.1,1.4,3.4,0.0,-3.9,80,59,39,30.33,30.01,7,2,0,0.00
2014-1-25,28.8,20.7,15.1,20.9,12.6,3.6,91,71,51,30.00,29.36,14,2,0,0.00
2014-1-26,24.4,20.7,14.5,16.3,8.2,0.2,89,59,40,29.85,29.39,10,2,0,0.00
2014-1-27,46.2,29.0,19.9,30.2,15.1,0.1,79,57,35,30.02,29.52,12,3,0,0.18
2014-1-28,24.3,16.4,11.8,3.1,-2.4,-8.5,64,44,24,30.31,30.02,6,2,0,0.00
2014-1-29,23.2,16.1,9.7,7.3,1.6,-2.3,79,55,33,30.23,30.03,8,2,0,0.00
2014-1-30,29.8,16.4,3.9,8.5,3.4,-2.5,76,58,35,30.39,30.14,5,1,0,0.00
2014-1-31,42.4,29.5,18.1,20.7,15.4,7.3,70,57,35,30.16,30.02,7,1,0,0.00